N5829K K1G4-KCMR
Flight info
| Callsign | N5829K |
|---|---|
| Flight time | N/A |
| Altitude | 10000 |
| Route | MILKI V562 PGS V291 KACEE |
| Aircraft | C182/L-SDGRY/S |
Departure
| Time | 2026-04-16 04:13 |
|---|---|
| Airport | Grand Canyon West Airport (K1G4) |
Arrival
| Time | N/A |
|---|---|
| Airport | H.A. Clark Memorial Field (KCMR) |
| Time | Latitude | Longitude | Altitude | Speed | Heading |
|---|---|---|---|---|---|
| 2026-04-16 04:06 | 35.98677 | -113.81892 | 4718 ft | 0 kts | 5° |
| 2026-04-16 04:08 | 35.98679 | -113.81892 | 4721 ft | 1 kts | 5° |
| 2026-04-16 04:08 | 35.98689 | -113.81890 | 4721 ft | 0 kts | 8° |
| 2026-04-16 04:08 | 35.98690 | -113.81890 | 4721 ft | 0 kts | 8° |
| 2026-04-16 04:09 | 35.98696 | -113.81874 | 4718 ft | 6 kts | 87° |
| 2026-04-16 04:10 | 35.98706 | -113.81823 | 4718 ft | 9 kts | 31° |
| 2026-04-16 04:10 | 35.98819 | -113.81807 | 4714 ft | 22 kts | 5° |
| 2026-04-16 04:10 | 35.98987 | -113.81789 | 4708 ft | 27 kts | 6° |
| 2026-04-16 04:10 | 35.99184 | -113.81766 | 4700 ft | 30 kts | 11° |
| 2026-04-16 04:11 | 35.99291 | -113.81744 | 4693 ft | 7 kts | 59° |
| 2026-04-16 04:11 | 35.99297 | -113.81715 | 4693 ft | 1 kts | 96° |
| 2026-04-16 04:11 | 35.99283 | -113.81632 | 4694 ft | 14 kts | 130° |
| 2026-04-16 04:11 | 35.99165 | -113.81634 | 4700 ft | 32 kts | 186° |
| 2026-04-16 04:12 | 35.98824 | -113.81672 | 4720 ft | 64 kts | 185° |
| 2026-04-16 04:12 | 35.98375 | -113.81712 | 4898 ft | 63 kts | 186° |
| 2026-04-16 04:12 | 35.97924 | -113.81647 | 5044 ft | 71 kts | 174° |
| 2026-04-16 04:12 | 35.97433 | -113.81411 | 5233 ft | 77 kts | 160° |
| 2026-04-16 04:13 | 35.96969 | -113.81066 | 5444 ft | 77 kts | 158° |
| 2026-04-16 04:13 | 35.96468 | -113.80705 | 5484 ft | 90 kts | 152° |
| 2026-04-16 04:13 | 35.95990 | -113.80290 | 5672 ft | 80 kts | 166° |
| 2026-04-16 04:13 | 35.95534 | -113.79945 | 5892 ft | 75 kts | 158° |
| 2026-04-16 04:14 | 35.95073 | -113.79818 | 6134 ft | 68 kts | 207° |
| 2026-04-16 04:14 | 35.94669 | -113.79881 | 6405 ft | 61 kts | 162° |
| 2026-04-16 04:14 | 35.94295 | -113.79730 | 6562 ft | 55 kts | 171° |
| 2026-04-16 04:14 | 35.93877 | -113.79572 | 6609 ft | 66 kts | 171° |
| 2026-04-16 04:15 | 35.93455 | -113.79399 | 6781 ft | 62 kts | 173° |
| 2026-04-16 04:15 | 35.93071 | -113.79229 | 6934 ft | 53 kts | 171° |
| 2026-04-16 04:15 | 35.92755 | -113.79086 | 7023 ft | 51 kts | 168° |
| 2026-04-16 04:15 | 35.92487 | -113.78960 | 7112 ft | 74 kts | 172° |
| 2026-04-16 04:16 | 35.91921 | -113.78705 | 7246 ft | 93 kts | 169° |
| 2026-04-16 04:16 | 35.91308 | -113.78419 | 7406 ft | 94 kts | 168° |
| 2026-04-16 04:16 | 35.90690 | -113.78116 | 7549 ft | 96 kts | 166° |
| 2026-04-16 04:16 | 35.90070 | -113.77810 | 7711 ft | 96 kts | 167° |
| 2026-04-16 04:17 | 35.89444 | -113.77502 | 7864 ft | 97 kts | 167° |
| 2026-04-16 04:17 | 35.88821 | -113.77193 | 8015 ft | 97 kts | 167° |
| 2026-04-16 04:17 | 35.88195 | -113.76884 | 8163 ft | 97 kts | 167° |
| 2026-04-16 04:17 | 35.87564 | -113.76573 | 8319 ft | 99 kts | 168° |
| 2026-04-16 04:18 | 35.86946 | -113.76263 | 8515 ft | 90 kts | 168° |
| 2026-04-16 04:18 | 35.86415 | -113.75996 | 8770 ft | 72 kts | 168° |
| 2026-04-16 04:18 | 35.85988 | -113.75789 | 8889 ft | 64 kts | 172° |
| 2026-04-16 04:18 | 35.85606 | -113.75602 | 8920 ft | 57 kts | 173° |
| 2026-04-16 04:19 | 35.85251 | -113.75422 | 9011 ft | 54 kts | 173° |
| 2026-04-16 04:19 | 35.84879 | -113.75242 | 9042 ft | 64 kts | 170° |
| 2026-04-16 04:19 | 35.84418 | -113.75019 | 9081 ft | 80 kts | 169° |
| 2026-04-16 04:19 | 35.83871 | -113.74748 | 9137 ft | 85 kts | 160° |
| 2026-04-16 04:20 | 35.83339 | -113.74487 | 9256 ft | 85 kts | 163° |
| 2026-04-16 04:20 | 35.82762 | -113.74205 | 9357 ft | 94 kts | 163° |
| 2026-04-16 04:20 | 35.82139 | -113.73899 | 9452 ft | 98 kts | 163° |
| 2026-04-16 04:20 | 35.81484 | -113.73577 | 9548 ft | 105 kts | 163° |
| 2026-04-16 04:21 | 35.80795 | -113.73238 | 9638 ft | 109 kts | 162° |
| 2026-04-16 04:21 | 35.80081 | -113.72886 | 9730 ft | 113 kts | 163° |
| 2026-04-16 04:21 | 35.79340 | -113.72521 | 9819 ft | 117 kts | 162° |
| 2026-04-16 04:21 | 35.78574 | -113.72145 | 9884 ft | 122 kts | 162° |
| 2026-04-16 04:22 | 35.77782 | -113.71755 | 9884 ft | 122 kts | 162° |
| 2026-04-16 04:22 | 35.77004 | -113.71371 | 9885 ft | 119 kts | 162° |
| 2026-04-16 04:22 | 35.76234 | -113.70992 | 9884 ft | 119 kts | 162° |
| 2026-04-16 04:22 | 35.75469 | -113.70615 | 9884 ft | 118 kts | 162° |
| 2026-04-16 04:23 | 35.74710 | -113.70242 | 9880 ft | 117 kts | 163° |
| 2026-04-16 04:23 | 35.73960 | -113.69873 | 9883 ft | 116 kts | 162° |
| 2026-04-16 04:23 | 35.73208 | -113.69504 | 9882 ft | 116 kts | 162° |
| 2026-04-16 04:23 | 35.72459 | -113.69136 | 9880 ft | 116 kts | 162° |
| 2026-04-16 04:24 | 35.71712 | -113.68768 | 9886 ft | 115 kts | 162° |
| 2026-04-16 04:24 | 35.70966 | -113.68402 | 9886 ft | 116 kts | 162° |
| 2026-04-16 04:24 | 35.70258 | -113.67966 | 9876 ft | 118 kts | 142° |
| 2026-04-16 04:24 | 35.69776 | -113.67142 | 9889 ft | 120 kts | 129° |
| 2026-04-16 04:25 | 35.69290 | -113.66292 | 9887 ft | 122 kts | 130° |
| 2026-04-16 04:25 | 35.68800 | -113.65439 | 9888 ft | 121 kts | 130° |
| 2026-04-16 04:25 | 35.68316 | -113.64597 | 9894 ft | 121 kts | 130° |
| 2026-04-16 04:25 | 35.67830 | -113.63751 | 9893 ft | 120 kts | 131° |
| 2026-04-16 04:26 | 35.67348 | -113.62913 | 9885 ft | 119 kts | 129° |
| 2026-04-16 04:26 | 35.66872 | -113.62086 | 9902 ft | 118 kts | 129° |
| 2026-04-16 04:26 | 35.66399 | -113.61262 | 9899 ft | 117 kts | 129° |
| 2026-04-16 04:26 | 35.65927 | -113.60443 | 9897 ft | 117 kts | 129° |
| 2026-04-16 04:27 | 35.65456 | -113.59626 | 9901 ft | 118 kts | 130° |
| 2026-04-16 04:27 | 35.64980 | -113.58800 | 9898 ft | 119 kts | 130° |
| 2026-04-16 04:27 | 35.64501 | -113.57968 | 9903 ft | 119 kts | 130° |
| 2026-04-16 04:27 | 35.64021 | -113.57135 | 9901 ft | 119 kts | 130° |
| 2026-04-16 04:28 | 35.63540 | -113.56301 | 9904 ft | 119 kts | 130° |
| 2026-04-16 04:28 | 35.63063 | -113.55472 | 9900 ft | 119 kts | 129° |
| 2026-04-16 04:28 | 35.62586 | -113.54644 | 9903 ft | 119 kts | 129° |
| 2026-04-16 04:28 | 35.62281 | -113.53704 | 9899 ft | 122 kts | 110° |
| 2026-04-16 04:29 | 35.62043 | -113.52706 | 9901 ft | 122 kts | 111° |
| 2026-04-16 04:29 | 35.61799 | -113.51713 | 9900 ft | 121 kts | 111° |
| 2026-04-16 04:29 | 35.61555 | -113.50722 | 9901 ft | 121 kts | 111° |
| 2026-04-16 04:29 | 35.61309 | -113.49728 | 9902 ft | 122 kts | 111° |
| 2026-04-16 04:30 | 35.61062 | -113.48725 | 9914 ft | 123 kts | 111° |
| 2026-04-16 04:30 | 35.60815 | -113.47722 | 9915 ft | 123 kts | 111° |
| 2026-04-16 04:30 | 35.60565 | -113.46713 | 9917 ft | 124 kts | 111° |
| 2026-04-16 04:30 | 35.60313 | -113.45691 | 9916 ft | 125 kts | 111° |
| 2026-04-16 04:31 | 35.60061 | -113.44672 | 9916 ft | 124 kts | 111° |
| 2026-04-16 04:31 | 35.59815 | -113.43675 | 9914 ft | 123 kts | 111° |
| 2026-04-16 04:31 | 35.59569 | -113.42678 | 9918 ft | 121 kts | 114° |
| 2026-04-16 04:31 | 35.59326 | -113.41693 | 9913 ft | 120 kts | 114° |
| 2026-04-16 04:32 | 35.59084 | -113.40718 | 9913 ft | 119 kts | 111° |
| 2026-04-16 04:32 | 35.58841 | -113.39738 | 9913 ft | 120 kts | 111° |
| 2026-04-16 04:32 | 35.58597 | -113.38751 | 9916 ft | 122 kts | 111° |
| 2026-04-16 04:32 | 35.58350 | -113.37752 | 9917 ft | 123 kts | 112° |
| 2026-04-16 04:33 | 35.58101 | -113.36746 | 9915 ft | 123 kts | 111° |
| 2026-04-16 04:33 | 35.57852 | -113.35743 | 9930 ft | 122 kts | 111° |
| 2026-04-16 04:33 | 35.57606 | -113.34750 | 9929 ft | 121 kts | 112° |
| 2026-04-16 04:33 | 35.57361 | -113.33764 | 9929 ft | 121 kts | 111° |
| 2026-04-16 04:34 | 35.57116 | -113.32777 | 9925 ft | 120 kts | 112° |
| 2026-04-16 04:34 | 35.56872 | -113.31793 | 9925 ft | 121 kts | 111° |
| 2026-04-16 04:34 | 35.56626 | -113.30804 | 9927 ft | 121 kts | 111° |
| 2026-04-16 04:34 | 35.56380 | -113.29815 | 9928 ft | 121 kts | 112° |
| 2026-04-16 04:35 | 35.56133 | -113.28822 | 9925 ft | 122 kts | 111° |
| 2026-04-16 04:35 | 35.55886 | -113.27826 | 9925 ft | 122 kts | 111° |
| 2026-04-16 04:35 | 35.55639 | -113.26832 | 9925 ft | 122 kts | 112° |
| 2026-04-16 04:35 | 35.55391 | -113.25839 | 9923 ft | 121 kts | 111° |
| 2026-04-16 04:36 | 35.55146 | -113.24852 | 9925 ft | 121 kts | 111° |
| 2026-04-16 04:36 | 35.54900 | -113.23863 | 9924 ft | 121 kts | 111° |
| 2026-04-16 04:36 | 35.54653 | -113.22872 | 9938 ft | 122 kts | 111° |
| 2026-04-16 04:36 | 35.54405 | -113.21878 | 9938 ft | 122 kts | 111° |
| 2026-04-16 04:37 | 35.54157 | -113.20883 | 9936 ft | 122 kts | 111° |
| 2026-04-16 04:37 | 35.53911 | -113.19900 | 9936 ft | 122 kts | 111° |
| 2026-04-16 04:37 | 35.53663 | -113.18904 | 9936 ft | 122 kts | 111° |
| 2026-04-16 04:37 | 35.53415 | -113.17909 | 9936 ft | 122 kts | 112° |
| 2026-04-16 04:38 | 35.53167 | -113.16915 | 9936 ft | 121 kts | 112° |
| 2026-04-16 04:38 | 35.52920 | -113.15928 | 9937 ft | 121 kts | 111° |
| 2026-04-16 04:38 | 35.52672 | -113.14937 | 9937 ft | 122 kts | 112° |
| 2026-04-16 04:38 | 35.52423 | -113.13941 | 9937 ft | 122 kts | 111° |
| 2026-04-16 04:39 | 35.52174 | -113.12945 | 9938 ft | 122 kts | 111° |
| 2026-04-16 04:39 | 35.51923 | -113.11943 | 9938 ft | 123 kts | 111° |
| 2026-04-16 04:39 | 35.51672 | -113.10938 | 9939 ft | 123 kts | 111° |
| 2026-04-16 04:39 | 35.51419 | -113.09929 | 9943 ft | 124 kts | 111° |
| 2026-04-16 04:40 | 35.51164 | -113.08911 | 9943 ft | 125 kts | 111° |
| 2026-04-16 04:40 | 35.50908 | -113.07890 | 9942 ft | 125 kts | 111° |
| 2026-04-16 04:40 | 35.50653 | -113.06871 | 9943 ft | 125 kts | 110° |
| 2026-04-16 04:40 | 35.50397 | -113.05851 | 9942 ft | 125 kts | 111° |
| 2026-04-16 04:41 | 35.50143 | -113.04839 | 9944 ft | 126 kts | 111° |
| 2026-04-16 04:41 | 35.49884 | -113.03807 | 9945 ft | 127 kts | 111° |
| 2026-04-16 04:41 | 35.49623 | -113.02769 | 9945 ft | 127 kts | 111° |
| 2026-04-16 04:41 | 35.49362 | -113.01729 | 9946 ft | 128 kts | 111° |
| 2026-04-16 04:42 | 35.49100 | -113.00687 | 9948 ft | 128 kts | 110° |
| 2026-04-16 04:42 | 35.48836 | -112.99639 | 9950 ft | 129 kts | 111° |
| 2026-04-16 04:42 | 35.48570 | -112.98581 | 9953 ft | 130 kts | 111° |
| 2026-04-16 04:42 | 35.48305 | -112.97523 | 9956 ft | 129 kts | 111° |
| 2026-04-16 04:43 | 35.48040 | -112.96474 | 9955 ft | 128 kts | 111° |
| 2026-04-16 04:43 | 35.47777 | -112.95429 | 9955 ft | 128 kts | 111° |
| 2026-04-16 04:43 | 35.47515 | -112.94387 | 9953 ft | 128 kts | 111° |
| 2026-04-16 04:43 | 35.47254 | -112.93351 | 9952 ft | 127 kts | 111° |
| 2026-04-16 04:44 | 35.46992 | -112.92313 | 9952 ft | 127 kts | 110° |
| 2026-04-16 04:44 | 35.46729 | -112.91271 | 9952 ft | 128 kts | 110° |
| 2026-04-16 04:44 | 35.46469 | -112.90241 | 9943 ft | 128 kts | 110° |
| 2026-04-16 04:44 | 35.46209 | -112.89211 | 9945 ft | 125 kts | 109° |
| 2026-04-16 04:45 | 35.45952 | -112.88194 | 9946 ft | 124 kts | 109° |
| 2026-04-16 04:45 | 35.45698 | -112.87184 | 9944 ft | 123 kts | 110° |
| 2026-04-16 04:45 | 35.45446 | -112.86188 | 9946 ft | 122 kts | 109° |
| 2026-04-16 04:45 | 35.45194 | -112.85197 | 9946 ft | 122 kts | 109° |
| 2026-04-16 04:46 | 35.44943 | -112.84203 | 9948 ft | 122 kts | 110° |
| 2026-04-16 04:46 | 35.44690 | -112.83203 | 9947 ft | 123 kts | 109° |
| 2026-04-16 04:46 | 35.44438 | -112.82205 | 9948 ft | 122 kts | 110° |
| 2026-04-16 04:46 | 35.44185 | -112.81208 | 9949 ft | 123 kts | 110° |
| 2026-04-16 04:47 | 35.43931 | -112.80203 | 9948 ft | 124 kts | 110° |
| 2026-04-16 04:47 | 35.43676 | -112.79200 | 9948 ft | 123 kts | 109° |
| 2026-04-16 04:47 | 35.43423 | -112.78199 | 9949 ft | 123 kts | 109° |
| 2026-04-16 04:47 | 35.43167 | -112.77191 | 9948 ft | 124 kts | 110° |
| 2026-04-16 04:48 | 35.42911 | -112.76183 | 9949 ft | 123 kts | 109° |
| 2026-04-16 04:48 | 35.42656 | -112.75177 | 9948 ft | 123 kts | 110° |
| 2026-04-16 04:48 | 35.42401 | -112.74173 | 9948 ft | 123 kts | 109° |
| 2026-04-16 04:48 | 35.42146 | -112.73168 | 9949 ft | 124 kts | 111° |
| 2026-04-16 04:49 | 35.41889 | -112.72158 | 9948 ft | 124 kts | 111° |
| 2026-04-16 04:49 | 35.41632 | -112.71145 | 9957 ft | 124 kts | 111° |
| 2026-04-16 04:49 | 35.41374 | -112.70134 | 9958 ft | 124 kts | 110° |
| 2026-04-16 04:49 | 35.41117 | -112.69120 | 9952 ft | 125 kts | 110° |
| 2026-04-16 04:50 | 35.40859 | -112.68109 | 9953 ft | 124 kts | 109° |
| 2026-04-16 04:50 | 35.40602 | -112.67098 | 9953 ft | 124 kts | 110° |
| 2026-04-16 04:50 | 35.40345 | -112.66090 | 9953 ft | 124 kts | 111° |
| 2026-04-16 04:50 | 35.40085 | -112.65072 | 9955 ft | 126 kts | 110° |